createdAt,value
2019-02-15T00:00:25.125Z,15.50
2019-02-15T00:01:25.093Z,15.60
2019-02-15T00:02:25.088Z,12.30
2019-02-15T00:03:25.084Z,12.60
2019-02-15T00:04:25.070Z,13.10
2019-02-15T00:05:25.066Z,15.50
2019-02-15T00:06:25.042Z,15.80
2019-02-15T00:07:25.030Z,13.80
2019-02-15T00:08:25.019Z,12.80
2019-02-15T00:09:25.021Z,12.10
2019-02-15T00:10:25.007Z,12.50
2019-02-15T00:11:24.981Z,13.10
2019-02-15T00:12:25.953Z,15.60
2019-02-15T00:13:24.959Z,15.50
2019-02-15T00:14:24.956Z,14.10
2019-02-15T00:15:24.965Z,14.70
2019-02-15T00:16:24.934Z,12.40
2019-02-15T00:17:24.920Z,15.00
2019-02-15T00:18:24.916Z,14.70
2019-02-15T00:19:24.897Z,13.60
2019-02-15T00:20:24.909Z,15.90
2019-02-15T00:21:24.891Z,11.90
2019-02-15T00:22:24.860Z,12.50
2019-02-15T00:23:24.851Z,12.40
2019-02-15T00:24:24.845Z,12.50
2019-02-15T00:25:24.829Z,13.70
2019-02-15T00:26:24.824Z,14.40
2019-02-15T00:27:24.807Z,12.00
2019-02-15T00:28:24.789Z,12.20
2019-02-15T00:29:24.786Z,13.20
2019-02-15T00:30:24.768Z,12.60
2019-02-15T00:31:24.771Z,12.50
2019-02-15T00:32:24.748Z,13.20
2019-02-15T00:33:24.733Z,11.80
2019-02-15T00:34:24.726Z,12.70
2019-02-15T00:35:24.715Z,15.90
2019-02-15T00:36:24.707Z,13.20
2019-02-15T00:37:24.689Z,12.70
2019-02-15T00:38:24.691Z,14.00
2019-02-15T00:39:24.662Z,12.90
2019-02-15T00:40:24.655Z,13.00
2019-02-15T00:41:24.654Z,12.80
2019-02-15T00:42:24.639Z,12.40
2019-02-15T00:43:24.626Z,13.60
2019-02-15T00:44:24.614Z,13.00
2019-02-15T00:45:24.597Z,13.40
2019-02-15T00:46:24.608Z,13.80
2019-02-15T00:47:24.571Z,14.60
2019-02-15T00:48:24.558Z,13.40
2019-02-15T00:49:24.564Z,13.60
2019-02-15T00:50:24.535Z,13.70
2019-02-15T00:51:24.540Z,12.80
2019-02-15T00:52:32.357Z,14.40
2019-02-15T00:53:24.840Z,12.90
2019-02-15T00:54:24.830Z,13.80
2019-02-15T00:55:24.803Z,13.30
2019-02-15T00:56:24.854Z,13.40
2019-02-15T00:57:24.578Z,15.20
2019-02-15T00:58:24.753Z,14.80
2019-02-15T00:59:24.718Z,14.50
2019-02-15T01:00:24.792Z,14.00
2019-02-15T01:01:24.788Z,15.20
2019-02-15T01:02:24.695Z,15.00
2019-02-15T01:03:24.769Z,15.60
2019-02-15T01:04:24.696Z,15.40
2019-02-15T01:05:24.771Z,13.40
2019-02-15T01:06:24.673Z,14.90
2019-02-15T01:07:24.388Z,14.10
2019-02-15T01:08:24.640Z,16.00
2019-02-15T01:09:24.705Z,15.20
2019-02-15T01:10:24.642Z,15.80
2019-02-15T01:11:24.669Z,13.60
2019-02-15T01:12:24.633Z,13.90
2019-02-15T01:13:30.955Z,12.50
2019-02-15T01:14:25.599Z,13.70
2019-02-15T01:15:24.559Z,12.40
2019-02-15T01:16:24.605Z,12.10
2019-02-15T01:17:24.559Z,12.80
2019-02-15T01:18:24.262Z,13.50
2019-02-15T01:19:24.527Z,12.80
2019-02-15T01:20:24.518Z,13.90
2019-02-15T01:21:24.520Z,15.10
2019-02-15T01:22:24.500Z,12.70
2019-02-15T01:23:24.460Z,12.60
2019-02-15T01:24:24.500Z,15.60
2019-02-15T01:25:24.467Z,14.00
2019-02-15T01:26:24.425Z,15.00
2019-02-15T01:27:24.165Z,13.70
2019-02-15T01:28:24.134Z,15.70
2019-02-15T01:29:24.132Z,13.20
2019-02-15T01:30:24.085Z,14.10
2019-02-15T01:31:24.105Z,11.40
2019-02-15T01:32:24.112Z,12.20
2019-02-15T01:33:24.113Z,13.50
2019-02-15T01:34:24.039Z,14.80
2019-02-15T01:35:24.033Z,12.10
2019-02-15T01:36:24.088Z,16.70
2019-02-15T01:37:24.024Z,13.90
2019-02-15T01:38:24.312Z,14.80
2019-02-15T01:39:24.307Z,14.30
2019-02-15T01:40:23.997Z,13.20
2019-02-15T01:41:24.307Z,14.20
2019-02-15T01:42:24.245Z,13.90
2019-02-15T01:43:24.306Z,12.40
2019-02-15T01:44:24.256Z,14.90
2019-02-15T01:45:23.944Z,11.70
2019-02-15T01:46:24.262Z,14.60
2019-02-15T01:47:24.193Z,13.00
2019-02-15T01:48:24.287Z,12.60
2019-02-15T01:49:24.227Z,16.20
2019-02-15T01:50:24.136Z,15.10
2019-02-15T01:51:24.213Z,13.70
2019-02-15T01:52:24.183Z,12.80
2019-02-15T01:53:24.127Z,13.50
2019-02-15T01:54:24.151Z,16.10
2019-02-15T01:55:24.135Z,15.50
2019-02-15T01:56:24.118Z,14.90
2019-02-15T01:57:24.021Z,12.30
2019-02-15T01:58:23.792Z,14.50
2019-02-15T01:59:24.087Z,13.80
2019-02-15T02:00:24.088Z,13.80
2019-02-15T02:01:24.014Z,14.20
2019-02-15T02:02:24.048Z,16.10
2019-02-15T02:03:24.065Z,16.60
2019-02-15T02:04:24.037Z,15.40
2019-02-15T02:05:24.015Z,15.20
2019-02-15T02:06:24.013Z,13.90
2019-02-15T02:07:24.005Z,13.90
2019-02-15T02:08:23.991Z,14.70
2019-02-15T02:09:23.993Z,17.30
2019-02-15T02:10:23.960Z,18.10
2019-02-15T02:11:23.880Z,13.50
2019-02-15T02:12:23.629Z,15.60
2019-02-15T02:13:23.892Z,12.60
2019-02-15T02:14:23.892Z,13.30
2019-02-15T02:15:23.943Z,15.80
2019-02-15T02:16:23.844Z,12.60
2019-02-15T02:17:23.907Z,13.00
2019-02-15T02:18:23.883Z,12.50
2019-02-15T02:19:23.856Z,12.50
2019-02-15T02:20:23.838Z,14.60
2019-02-15T02:21:23.848Z,13.30
2019-02-15T02:22:23.817Z,14.40
2019-02-15T02:23:23.837Z,13.40
2019-02-15T02:24:23.863Z,13.60
2019-02-15T02:25:23.811Z,14.90
2019-02-15T02:26:23.832Z,12.70
2019-02-15T02:27:23.767Z,13.60
2019-02-15T02:28:23.446Z,10.40
2019-02-15T02:29:23.720Z,14.70
2019-02-15T02:30:23.744Z,14.10
2019-02-15T02:31:23.717Z,14.30
2019-02-15T02:32:23.714Z,13.90
2019-02-15T02:33:23.679Z,13.10
2019-02-15T02:34:23.681Z,13.10
2019-02-15T02:35:23.706Z,12.00
2019-02-15T02:36:23.639Z,13.40
2019-02-15T02:37:23.627Z,12.50
2019-02-15T02:38:23.665Z,13.80
2019-02-15T02:39:23.694Z,15.00
2019-02-15T02:40:23.667Z,13.60
2019-02-15T02:41:23.299Z,14.40
2019-02-15T02:42:23.599Z,14.30
2019-02-15T02:43:23.572Z,12.60
2019-02-15T02:44:23.547Z,12.70
2019-02-15T02:45:23.556Z,12.30
2019-02-15T02:46:23.485Z,13.80
2019-02-15T02:47:23.551Z,14.00
2019-02-15T02:48:23.519Z,13.90
2019-02-15T02:49:23.498Z,11.70
2019-02-15T02:50:23.466Z,13.60
2019-02-15T02:51:23.502Z,13.50
2019-02-15T02:52:23.494Z,12.00
2019-02-15T02:53:23.497Z,13.40
2019-02-15T02:54:23.470Z,13.50
2019-02-15T02:55:23.523Z,13.10
2019-02-15T02:56:23.434Z,15.30
2019-02-15T02:57:23.366Z,12.40
2019-02-15T02:58:23.376Z,13.40
2019-02-15T02:59:23.427Z,14.10
2019-02-15T03:00:32.914Z,13.50
2019-02-15T03:01:24.382Z,11.70
2019-02-15T03:02:23.064Z,13.20
2019-02-15T03:03:23.363Z,12.10
2019-02-15T03:04:23.392Z,15.10
2019-02-15T03:05:23.353Z,12.90
2019-02-15T03:06:23.319Z,14.70
2019-02-15T03:07:23.373Z,13.10
2019-02-15T03:08:23.328Z,13.20
2019-02-15T03:09:23.307Z,13.80
2019-02-15T03:10:23.325Z,13.40
2019-02-15T03:11:23.244Z,13.70
2019-02-15T03:12:23.270Z,12.50
2019-02-15T03:13:23.239Z,12.40
2019-02-15T03:14:23.221Z,12.60
2019-02-15T03:15:22.953Z,12.60
2019-02-15T03:16:23.232Z,11.90
2019-02-15T03:17:23.176Z,13.40
2019-02-15T03:18:23.177Z,11.60
2019-02-15T03:19:23.171Z,13.20
2019-02-15T03:20:30.816Z,15.80
2019-02-15T03:21:24.165Z,12.40
2019-02-15T03:22:23.130Z,13.30
2019-02-15T03:23:23.108Z,11.70
2019-02-15T03:24:23.117Z,13.20
2019-02-15T03:25:23.096Z,13.20
2019-02-15T03:26:23.123Z,12.10
2019-02-15T03:27:23.099Z,14.20
2019-02-15T03:28:23.038Z,10.60
2019-02-15T03:29:23.041Z,11.80
2019-02-15T03:30:23.041Z,14.50
2019-02-15T03:31:23.032Z,12.50
2019-02-15T03:32:22.988Z,12.90
2019-02-15T03:33:22.702Z,14.20
2019-02-15T03:34:23.006Z,12.50
2019-02-15T03:35:22.965Z,14.30
2019-02-15T03:36:23.003Z,12.40
2019-02-15T03:37:22.976Z,12.10
2019-02-15T03:38:22.995Z,14.10
2019-02-15T03:39:22.928Z,11.70
2019-02-15T03:40:22.937Z,14.20
2019-02-15T03:41:22.957Z,12.00
2019-02-15T03:42:22.927Z,12.70
2019-02-15T03:43:22.819Z,12.70
2019-02-15T03:44:22.961Z,13.40
2019-02-15T03:45:22.801Z,13.30
2019-02-15T03:46:22.870Z,11.90
2019-02-15T03:47:22.877Z,13.30
2019-02-15T03:48:22.792Z,13.10
2019-02-15T03:49:22.850Z,11.40
2019-02-15T03:50:22.847Z,13.20
2019-02-15T03:51:22.817Z,12.80
2019-02-15T03:52:22.792Z,11.50
2019-02-15T03:53:22.509Z,14.70
2019-02-15T03:54:22.715Z,13.90
2019-02-15T03:55:22.745Z,13.30
2019-02-15T03:56:22.754Z,13.00
2019-02-15T03:57:22.731Z,12.60
2019-02-15T03:58:22.716Z,12.20
2019-02-15T03:59:22.692Z,10.60
2019-02-15T04:00:22.716Z,11.90
2019-02-15T04:01:22.685Z,12.20
2019-02-15T04:02:22.748Z,13.40
2019-02-15T04:03:22.682Z,12.40
2019-02-15T04:04:22.634Z,13.70
2019-02-15T04:05:22.643Z,12.40
2019-02-15T04:06:22.637Z,13.10
2019-02-15T04:07:22.598Z,12.00
2019-02-15T04:08:22.600Z,14.50
2019-02-15T04:09:22.630Z,13.70
2019-02-15T04:10:22.604Z,12.90
2019-02-15T04:11:22.847Z,12.20
2019-02-15T04:12:22.570Z,13.80
2019-02-15T04:13:22.573Z,11.70
2019-02-15T04:14:32.282Z,13.00
2019-02-15T04:15:23.523Z,12.60
2019-02-15T04:16:22.789Z,12.70
2019-02-15T04:17:22.505Z,13.70
2019-02-15T04:18:22.576Z,11.50
2019-02-15T04:19:22.479Z,13.00
2019-02-15T04:20:22.457Z,11.00
2019-02-15T04:21:22.436Z,13.10
2019-02-15T04:22:22.451Z,12.40
2019-02-15T04:23:22.374Z,12.40
2019-02-15T04:24:22.417Z,12.60
2019-02-15T04:25:22.370Z,10.00
2019-02-15T04:26:22.429Z,13.30
2019-02-15T04:27:22.098Z,12.80
2019-02-15T04:28:22.383Z,11.50
2019-02-15T04:29:22.396Z,12.70
2019-02-15T04:30:22.363Z,12.40
2019-02-15T04:31:22.352Z,15.20
2019-02-15T04:32:22.350Z,12.10
2019-02-15T04:33:22.310Z,12.00
2019-02-15T04:34:22.250Z,15.30
2019-02-15T04:35:22.358Z,12.50
2019-02-15T04:36:22.347Z,12.70
2019-02-15T04:37:22.268Z,13.80
2019-02-15T04:38:22.256Z,11.30
2019-02-15T04:39:22.294Z,13.50
2019-02-15T04:40:22.226Z,13.80
2019-02-15T04:41:22.227Z,12.40
2019-02-15T04:42:22.244Z,13.40
2019-02-15T04:43:22.230Z,11.10
2019-02-15T04:44:22.209Z,11.80
2019-02-15T04:45:21.882Z,15.50
2019-02-15T04:46:22.202Z,14.30
2019-02-15T04:47:22.177Z,12.50
2019-02-15T04:48:22.213Z,13.80
2019-02-15T04:49:22.125Z,14.40
2019-02-15T04:50:22.149Z,12.60
2019-02-15T04:51:22.060Z,12.80
2019-02-15T04:52:22.124Z,12.10
2019-02-15T04:53:22.113Z,11.70
2019-02-15T04:54:22.048Z,11.30
2019-02-15T04:55:22.079Z,12.50
2019-02-15T04:56:22.100Z,14.10
2019-02-15T04:57:22.069Z,11.90
2019-02-15T04:58:21.985Z,13.40
2019-02-15T04:59:22.047Z,12.80
2019-02-15T05:00:22.023Z,13.30
2019-02-15T05:01:22.030Z,12.70
2019-02-15T05:02:21.982Z,14.60
2019-02-15T05:03:21.957Z,14.90
2019-02-15T05:04:21.664Z,13.10
2019-02-15T05:05:21.931Z,13.90
2019-02-15T05:06:21.943Z,12.80
2019-02-15T05:07:21.966Z,13.40
2019-02-15T05:08:21.962Z,13.20
2019-02-15T05:09:23.798Z,14.30
2019-02-15T05:10:21.929Z,12.60
2019-02-15T05:11:21.932Z,12.60
2019-02-15T05:12:21.821Z,13.20
2019-02-15T05:13:21.861Z,11.90
2019-02-15T05:14:21.843Z,15.50
2019-02-15T05:15:21.849Z,15.60
2019-02-15T05:16:21.830Z,14.30
2019-02-15T05:17:21.838Z,14.80
2019-02-15T05:18:21.792Z,14.10
2019-02-15T05:19:21.808Z,15.40
2019-02-15T05:20:21.798Z,15.20
2019-02-15T05:21:21.761Z,14.80
2019-02-15T05:22:21.754Z,16.30
2019-02-15T05:23:21.465Z,16.20
2019-02-15T05:24:21.748Z,14.80
2019-02-15T05:25:21.714Z,16.20
2019-02-15T05:26:21.715Z,15.30
2019-02-15T05:27:21.860Z,15.00
2019-02-15T05:28:21.743Z,14.00
2019-02-15T05:29:21.642Z,16.80
2019-02-15T05:30:21.637Z,12.70
2019-02-15T05:31:21.601Z,15.10
2019-02-15T05:32:21.728Z,16.20
2019-02-15T05:33:21.624Z,15.20
2019-02-15T05:34:21.602Z,14.10
2019-02-15T05:35:21.618Z,21.60
2019-02-15T05:36:21.814Z,16.70
2019-02-15T05:37:21.600Z,18.60
2019-02-15T05:38:21.661Z,15.60
2019-02-15T05:39:21.610Z,13.40
2019-02-15T05:40:21.547Z,13.50
2019-02-15T05:41:21.594Z,16.60
2019-02-15T05:42:21.242Z,14.70
2019-02-15T05:43:21.545Z,14.70
2019-02-15T05:44:21.511Z,15.90
2019-02-15T05:45:21.478Z,14.40
2019-02-15T05:46:21.507Z,14.10
2019-02-15T05:47:21.499Z,14.00
2019-02-15T05:48:21.498Z,14.90
2019-02-15T05:49:21.465Z,13.10
2019-02-15T05:50:21.473Z,13.20
2019-02-15T05:51:21.448Z,12.80
2019-02-15T05:52:21.388Z,12.70
2019-02-15T05:53:21.453Z,16.70
2019-02-15T05:54:21.402Z,14.30
2019-02-15T05:55:21.363Z,13.80
2019-02-15T05:56:21.585Z,14.50
2019-02-15T05:57:21.380Z,14.00
2019-02-15T05:58:21.379Z,14.10
2019-02-15T05:59:21.347Z,16.80
2019-02-15T06:00:21.338Z,17.20
2019-02-15T06:01:21.300Z,16.40
2019-02-15T06:02:21.306Z,16.00
2019-02-15T06:03:21.287Z,15.30
2019-02-15T06:04:21.239Z,16.30
2019-02-15T06:05:21.274Z,18.20
2019-02-15T06:06:21.263Z,17.40
2019-02-15T06:07:21.269Z,17.00
2019-02-15T06:08:21.274Z,16.20
2019-02-15T06:09:21.239Z,14.70
2019-02-15T06:10:20.927Z,18.50
2019-02-15T06:11:21.215Z,14.60
2019-02-15T06:12:21.191Z,15.00
2019-02-15T06:13:21.181Z,17.50
2019-02-15T06:14:21.172Z,17.90
2019-02-15T06:15:21.158Z,18.10
2019-02-15T06:16:21.117Z,17.10
2019-02-15T06:17:21.109Z,16.70
2019-02-15T06:18:21.079Z,17.70
2019-02-15T06:19:21.137Z,17.50
2019-02-15T06:20:21.130Z,18.80
2019-02-15T06:21:21.084Z,15.90
2019-02-15T06:22:21.096Z,18.30
2019-02-15T06:23:21.056Z,20.20
2019-02-15T06:24:21.028Z,17.80
2019-02-15T06:25:21.041Z,19.40
2019-02-15T06:26:21.033Z,18.70
2019-02-15T06:27:21.017Z,17.90
2019-02-15T06:28:21.051Z,18.20
2019-02-15T06:29:20.950Z,17.70
2019-02-15T06:30:20.969Z,18.70
2019-02-15T06:31:20.956Z,16.30
2019-02-15T06:32:20.940Z,15.40
2019-02-15T06:33:20.975Z,17.00
2019-02-15T06:34:20.954Z,15.40
2019-02-15T06:35:20.954Z,18.70
2019-02-15T06:36:20.941Z,18.30
2019-02-15T06:37:20.857Z,17.90
2019-02-15T06:38:20.914Z,17.20
2019-02-15T06:39:20.897Z,17.90
2019-02-15T06:40:20.556Z,18.60
2019-02-15T06:41:20.543Z,15.20
2019-02-15T06:42:20.527Z,18.90
2019-02-15T06:43:20.549Z,17.80
2019-02-15T06:44:20.509Z,19.40
2019-02-15T06:45:24.763Z,17.80
2019-02-15T06:46:20.496Z,16.90
2019-02-15T06:47:20.474Z,17.10
2019-02-15T06:48:20.460Z,19.30
2019-02-15T06:49:20.457Z,16.30
2019-02-15T06:50:20.444Z,20.40
2019-02-15T06:51:20.429Z,20.40
2019-02-15T06:52:20.450Z,18.70
2019-02-15T06:53:20.413Z,19.20
2019-02-15T06:54:20.407Z,18.00
2019-02-15T06:55:20.439Z,21.30
2019-02-15T06:56:20.376Z,20.40
2019-02-15T06:57:20.367Z,17.50
2019-02-15T06:58:20.347Z,22.80
2019-02-15T06:59:20.363Z,17.90
2019-02-15T07:00:20.325Z,17.70
2019-02-15T07:01:20.318Z,21.20
2019-02-15T07:02:20.311Z,20.90
2019-02-15T07:03:20.307Z,16.60
2019-02-15T07:04:20.302Z,17.50
2019-02-15T07:05:20.281Z,18.60
2019-02-15T07:06:20.265Z,19.10
2019-02-15T07:07:20.271Z,19.50
2019-02-15T07:08:20.243Z,19.10
2019-02-15T07:09:20.244Z,18.10
2019-02-15T07:10:20.219Z,19.30
2019-02-15T07:11:20.209Z,18.80
2019-02-15T07:12:20.196Z,18.70
2019-02-15T07:13:20.182Z,21.90
2019-02-15T07:14:20.930Z,19.90
2019-02-15T07:15:20.157Z,15.90
2019-02-15T07:16:20.146Z,18.10
2019-02-15T07:17:20.140Z,19.80
2019-02-15T07:18:20.123Z,17.40
2019-02-15T07:19:27.511Z,18.90
2019-02-15T07:20:27.421Z,21.60
2019-02-15T07:21:27.403Z,19.40
2019-02-15T07:22:27.474Z,23.10
2019-02-15T07:23:20.371Z,17.60
2019-02-15T07:24:28.683Z,18.00
2019-02-15T07:25:20.410Z,19.50
2019-02-15T07:26:20.331Z,20.30
2019-02-15T07:27:20.323Z,17.60
2019-02-15T07:28:20.120Z,21.30
2019-02-15T07:29:27.384Z,16.90
2019-02-15T07:30:20.208Z,16.90
2019-02-15T07:31:20.029Z,15.40
2019-02-15T07:33:30.639Z,15.10
2019-02-15T07:34:30.598Z,15.40
2019-02-15T07:35:37.617Z,19.00
2019-02-15T07:36:37.842Z,16.10
2019-02-15T07:37:30.530Z,14.70
2019-02-15T07:38:30.530Z,15.20
2019-02-15T07:39:30.535Z,15.60
2019-02-15T07:40:30.404Z,16.40
2019-02-15T07:41:30.499Z,16.50
2019-02-15T07:42:30.211Z,15.50
2019-02-15T07:43:37.483Z,15.50
2019-02-15T07:44:38.783Z,17.10
2019-02-15T07:45:30.437Z,14.70
2019-02-15T07:46:30.274Z,16.70
2019-02-15T07:47:30.397Z,13.60
2019-02-15T07:48:30.397Z,14.40
2019-02-15T07:49:30.200Z,13.30
2019-02-15T07:50:38.463Z,16.50
2019-02-15T07:52:20.686Z,10.90
2019-02-15T07:53:27.645Z,12.90
2019-02-15T07:54:27.826Z,14.40
2019-02-15T07:55:27.635Z,15.00
2019-02-15T07:56:29.834Z,14.20
2019-02-15T07:59:45.111Z,13.30
2019-02-15T08:00:45.112Z,13.40
2019-02-15T08:01:52.087Z,18.90
2019-02-15T08:03:55.557Z,15.30
2019-02-15T08:06:04.577Z,11.90
2019-02-15T08:07:12.295Z,14.80
2019-02-15T08:08:11.501Z,14.90
2019-02-15T08:09:11.554Z,14.70
2019-02-15T08:10:12.098Z,15.10
2019-02-15T08:11:11.551Z,15.80
2019-02-15T08:12:13.130Z,16.00
2019-02-15T08:13:12.394Z,16.30
2019-02-15T08:14:14.767Z,16.40
2019-02-15T08:15:12.924Z,15.40
2019-02-15T08:16:11.457Z,15.90
2019-02-15T08:17:12.445Z,15.30
2019-02-15T08:18:04.322Z,16.30
2019-02-15T08:19:12.684Z,14.00
2019-02-15T08:20:04.546Z,17.00
2019-02-15T08:21:04.175Z,16.30
2019-02-15T08:22:04.182Z,14.40
2019-02-15T08:23:13.010Z,15.80
2019-02-15T08:24:12.915Z,18.70
2019-02-15T08:26:15.195Z,17.10
2019-02-15T08:27:14.897Z,15.70
2019-02-15T08:29:53.319Z,16.90
2019-02-15T08:30:53.295Z,15.40
2019-02-15T08:31:53.295Z,16.20
2019-02-15T08:32:53.290Z,15.80
2019-02-15T08:33:53.626Z,15.10
2019-02-15T08:34:53.209Z,16.40
2019-02-15T08:35:53.192Z,16.50
2019-02-15T08:36:53.020Z,15.00
2019-02-15T08:37:53.831Z,14.60
2019-02-15T08:38:53.168Z,15.60
2019-02-15T08:39:53.165Z,16.80
2019-02-15T08:40:52.886Z,14.00
2019-02-15T08:42:01.265Z,17.30
2019-02-15T08:42:55.850Z,16.80
2019-02-15T08:43:52.917Z,13.20
2019-02-15T08:44:52.826Z,14.80
2019-02-15T08:46:00.521Z,13.30
2019-02-15T08:46:53.799Z,14.10
2019-02-15T08:47:52.789Z,15.20
2019-02-15T08:49:00.097Z,15.70
2019-02-15T08:49:53.107Z,14.80
2019-02-15T08:50:53.016Z,16.60
2019-02-15T08:51:53.068Z,15.10
2019-02-15T08:52:54.986Z,15.30
2019-02-15T08:53:53.035Z,17.40
2019-02-15T08:54:52.922Z,17.00
2019-02-15T08:55:52.879Z,15.70
2019-02-15T08:56:52.721Z,15.40
2019-02-15T08:57:53.035Z,17.50
2019-02-15T08:58:52.706Z,17.20
2019-02-15T08:59:52.664Z,16.00
2019-02-15T09:00:52.660Z,17.30
2019-02-15T09:01:52.647Z,16.50
2019-02-15T09:02:52.636Z,17.90
2019-02-15T09:03:52.625Z,17.30
2019-02-15T09:04:52.600Z,17.40
2019-02-15T09:05:52.606Z,16.80
2019-02-15T09:06:52.571Z,15.50
2019-02-15T09:07:52.560Z,15.70
2019-02-15T09:08:52.565Z,15.80
2019-02-15T09:09:52.572Z,16.90
2019-02-15T09:10:52.540Z,19.70
2019-02-15T09:11:52.542Z,15.40
2019-02-15T09:12:52.513Z,17.20
2019-02-15T09:13:52.497Z,17.30
2019-02-15T09:14:52.490Z,16.20
2019-02-15T09:15:52.538Z,16.90
2019-02-15T09:16:52.473Z,17.20
2019-02-15T09:17:52.475Z,16.10
2019-02-15T09:18:52.443Z,18.10
2019-02-15T09:19:52.439Z,19.40
2019-02-15T09:20:52.436Z,15.80
2019-02-15T09:21:53.338Z,15.80
2019-02-15T09:22:52.414Z,16.40
2019-02-15T09:23:52.433Z,18.30
2019-02-15T09:24:52.376Z,18.10
2019-02-15T09:25:52.377Z,19.60
2019-02-15T09:26:52.368Z,19.30
2019-02-15T09:27:52.348Z,16.10
2019-02-15T09:28:52.352Z,15.40
2019-02-15T09:29:52.325Z,19.20
2019-02-15T09:30:52.326Z,19.80
2019-02-15T09:31:52.291Z,16.60
2019-02-15T09:32:52.288Z,18.40
2019-02-15T09:33:52.836Z,17.00
2019-02-15T09:34:52.262Z,19.90
2019-02-15T09:35:52.339Z,17.60
2019-02-15T09:36:52.247Z,18.60
2019-02-15T09:37:52.219Z,16.70
2019-02-15T09:38:52.897Z,19.00
2019-02-15T09:39:52.206Z,18.10
2019-02-15T09:40:52.194Z,20.40
2019-02-15T09:41:52.189Z,19.10
2019-02-15T09:42:52.214Z,17.90
2019-02-15T09:43:52.158Z,16.60
2019-02-15T09:44:52.158Z,19.80
2019-02-15T09:45:52.141Z,21.80
2019-02-15T09:46:59.510Z,18.10
2019-02-15T09:47:52.463Z,16.70
2019-02-15T09:48:52.346Z,17.50
2019-02-15T09:49:52.494Z,17.70
2019-02-15T09:50:52.397Z,18.20
2019-02-15T09:51:52.524Z,20.50
2019-02-15T09:52:52.438Z,16.00
2019-02-15T09:53:52.364Z,18.60
2019-02-15T09:54:52.421Z,19.80
2019-02-15T09:55:52.355Z,20.00
2019-02-15T09:56:52.306Z,19.20
2019-02-15T09:57:52.167Z,16.30
2019-02-15T09:58:52.275Z,16.90
2019-02-15T09:59:52.306Z,16.70
2019-02-15T10:00:52.158Z,22.10
2019-02-15T10:01:52.115Z,18.90
2019-02-15T10:02:51.982Z,20.40
2019-02-15T10:03:52.236Z,20.90
2019-02-15T10:04:52.255Z,19.40
2019-02-15T10:05:51.930Z,20.80
2019-02-15T10:06:51.943Z,19.60
2019-02-15T10:07:51.914Z,19.90
2019-02-15T10:08:51.880Z,21.40
2019-02-15T10:09:51.889Z,20.40
2019-02-15T10:10:51.851Z,19.20
2019-02-15T10:11:51.938Z,18.20
2019-02-15T10:12:51.847Z,18.90
2019-02-15T10:13:51.829Z,18.60
2019-02-15T10:14:51.876Z,21.90
2019-02-15T10:15:51.855Z,18.20
2019-02-15T10:16:51.872Z,18.30
2019-02-15T10:17:51.786Z,17.40
2019-02-15T10:18:51.791Z,20.80
2019-02-15T10:19:51.756Z,16.50
2019-02-15T10:20:51.807Z,22.10
2019-02-15T10:21:51.747Z,19.50
2019-02-15T10:22:51.802Z,20.00
2019-02-15T10:23:51.743Z,19.40
2019-02-15T10:24:51.733Z,21.20
2019-02-15T10:25:51.697Z,19.20
2019-02-15T10:26:51.705Z,19.30
2019-02-15T10:27:51.659Z,19.10
2019-02-15T10:28:51.667Z,19.10
2019-02-15T10:30:02.237Z,19.60
2019-02-15T10:30:51.981Z,18.80
2019-02-15T10:31:51.956Z,18.80
2019-02-15T10:32:51.929Z,18.90
2019-02-15T10:33:51.901Z,18.30
2019-02-15T10:34:51.773Z,18.60
2019-02-15T10:35:51.628Z,19.00
2019-02-15T10:36:51.944Z,19.30
2019-02-15T10:37:51.602Z,19.10
2019-02-15T10:38:51.561Z,18.20
2019-02-15T10:39:51.534Z,16.70
2019-02-15T10:40:51.543Z,18.40
2019-02-15T10:41:51.530Z,23.40
2019-02-15T10:42:51.495Z,18.80
2019-02-15T10:43:51.481Z,19.40
2019-02-15T10:44:51.471Z,19.10
2019-02-15T10:45:51.473Z,19.80
2019-02-15T10:46:51.489Z,15.50
2019-02-15T10:47:51.451Z,17.10
2019-02-15T10:48:51.442Z,20.00
2019-02-15T10:49:51.460Z,18.40
2019-02-15T10:50:51.418Z,18.30
2019-02-15T10:51:51.431Z,17.50
2019-02-15T10:52:51.402Z,15.90
2019-02-15T10:53:51.371Z,16.70
2019-02-15T10:54:51.370Z,16.10
2019-02-15T10:55:51.350Z,14.90
2019-02-15T10:56:51.340Z,14.70
2019-02-15T10:57:52.347Z,16.40
2019-02-15T10:58:51.311Z,15.60
2019-02-15T10:59:51.310Z,15.60
2019-02-15T11:00:51.887Z,16.70
2019-02-15T11:01:51.287Z,13.00
2019-02-15T11:02:51.279Z,15.00
2019-02-15T11:03:51.289Z,14.80
2019-02-15T11:04:51.242Z,13.90
2019-02-15T11:05:51.241Z,14.10
2019-02-15T11:06:51.218Z,14.60
2019-02-15T11:07:51.218Z,13.80
2019-02-15T11:08:51.206Z,12.70
2019-02-15T11:09:51.207Z,14.90
2019-02-15T11:10:51.202Z,14.90
2019-02-15T11:11:51.185Z,14.10
2019-02-15T11:12:51.183Z,14.90
2019-02-15T11:13:51.153Z,12.70
2019-02-15T11:14:51.130Z,12.50
2019-02-15T11:15:51.116Z,12.90
2019-02-15T11:16:51.111Z,12.90
2019-02-15T11:17:51.128Z,13.60
2019-02-15T11:18:51.102Z,13.00
2019-02-15T11:19:51.106Z,12.50
2019-02-15T11:20:51.063Z,12.20
2019-02-15T11:21:51.063Z,14.90
2019-02-15T11:22:51.061Z,13.20
2019-02-15T11:23:51.027Z,12.20
2019-02-15T11:24:51.064Z,13.00
2019-02-15T11:25:51.023Z,10.60
2019-02-15T11:26:50.994Z,11.80
2019-02-15T11:27:51.049Z,11.50
2019-02-15T11:28:51.002Z,11.60
2019-02-15T11:29:51.035Z,11.00
2019-02-15T11:30:50.970Z,12.60
2019-02-15T11:31:50.987Z,11.30
2019-02-15T11:32:50.949Z,12.00
2019-02-15T11:33:51.172Z,12.50
2019-02-15T11:34:59.268Z,14.20
2019-02-15T11:35:51.160Z,12.40
2019-02-15T11:36:51.210Z,12.90
2019-02-15T11:37:51.755Z,12.20
2019-02-15T11:38:51.517Z,12.00
2019-02-15T11:39:50.884Z,12.20
2019-02-15T11:40:59.211Z,10.70
2019-02-15T11:41:51.107Z,11.70
2019-02-15T11:42:51.074Z,10.70
2019-02-15T11:43:58.204Z,11.90
2019-02-15T11:44:51.062Z,11.60
2019-02-15T11:45:58.137Z,13.50
2019-02-15T11:46:56.767Z,13.40
2019-02-15T11:47:51.120Z,12.10
2019-02-15T11:48:50.788Z,12.40
2019-02-15T11:49:50.728Z,12.60
2019-02-15T11:50:50.733Z,15.30
2019-02-15T11:51:50.789Z,12.00
2019-02-15T11:52:51.505Z,14.80
2019-02-15T11:53:50.694Z,13.60
2019-02-15T11:54:50.675Z,15.10
2019-02-15T11:55:50.682Z,12.80
2019-02-15T11:59:12.305Z,10.90
2019-02-15T12:02:28.905Z,10.90
2019-02-15T12:03:20.887Z,11.80
2019-02-15T12:04:20.543Z,12.20
2019-02-15T12:05:21.181Z,10.40
2019-02-15T12:06:19.660Z,13.60
2019-02-15T12:07:20.229Z,12.10
2019-02-15T12:08:19.644Z,10.70
2019-02-15T12:09:19.617Z,11.80
2019-02-15T12:10:19.593Z,11.90
2019-02-15T12:11:19.620Z,10.30
2019-02-15T12:12:19.686Z,10.30
2019-02-15T12:13:19.592Z,10.00
2019-02-15T12:14:20.252Z,12.30
2019-02-15T12:15:19.582Z,11.30
2019-02-15T12:16:19.566Z,9.60
2019-02-15T12:17:20.285Z,11.80
2019-02-15T12:18:19.564Z,11.20
2019-02-15T12:19:19.536Z,11.10
2019-02-15T12:20:19.511Z,11.10
2019-02-15T12:21:19.530Z,10.00
2019-02-15T12:22:26.477Z,11.40
2019-02-15T12:23:19.460Z,9.70
2019-02-15T12:24:19.440Z,10.70
2019-02-15T12:25:19.424Z,11.20
2019-02-15T12:26:19.417Z,8.80
2019-02-15T12:27:19.401Z,10.50
2019-02-15T12:28:19.398Z,10.10
2019-02-15T12:29:19.377Z,9.60
2019-02-15T12:30:19.370Z,9.50
2019-02-15T12:31:19.379Z,8.40
2019-02-15T12:32:26.388Z,9.30
2019-02-15T12:33:19.361Z,8.80
2019-02-15T12:34:19.330Z,10.80
2019-02-15T12:35:19.315Z,9.80
2019-02-15T12:36:19.308Z,9.60
2019-02-15T12:37:19.288Z,8.90
2019-02-15T12:38:19.287Z,9.00
2019-02-15T12:39:19.280Z,9.80
2019-02-15T12:40:19.288Z,8.90
2019-02-15T12:41:19.242Z,9.30
2019-02-15T12:42:19.231Z,9.10
2019-02-15T12:43:19.253Z,8.80
2019-02-15T12:44:19.206Z,10.10
2019-02-15T12:45:19.212Z,9.90
2019-02-15T12:46:19.195Z,10.30
2019-02-15T12:47:19.187Z,9.90
2019-02-15T12:48:19.234Z,10.70
2019-02-15T12:49:19.217Z,9.00
2019-02-15T12:50:19.191Z,9.00
2019-02-15T12:51:19.167Z,9.80
2019-02-15T12:52:19.187Z,10.10
2019-02-15T12:53:19.195Z,9.80
2019-02-15T12:54:19.179Z,9.40
2019-02-15T12:55:19.150Z,10.70
2019-02-15T12:56:19.100Z,9.00
2019-02-15T12:57:19.835Z,11.90
2019-02-15T12:58:19.108Z,9.90
2019-02-15T12:59:19.127Z,9.40
2019-02-15T13:00:19.106Z,8.90
2019-02-15T13:01:19.020Z,9.30
2019-02-15T13:02:19.042Z,9.60
2019-02-15T13:03:19.825Z,9.40
2019-02-15T13:04:19.053Z,10.00
2019-02-15T13:05:18.995Z,10.60
2019-02-15T13:06:28.230Z,9.70
2019-02-15T13:07:19.986Z,11.20